Terminal Aerodrome Forecast
Issued by NWS

Home | Current Version | Previous Version | Graphics & Text | Print | Product List | Glossary On
Versions: 1 2 3 4 5 6 7 8 9 10 11 12 13 14 15 16 17 18 19 20 21 22 23 24
000
FTUS43 KFGF 281354 AAA
TAFBJI
TAF AMD
KBJI 281354Z 2814/2912 20006KT 3SM BR BKN003
     FM281500 20008KT P6SM SCT050 BKN250
     FM282200 20011G28KT P6SM SCT050 BKN200
     FM290000 20009KT P6SM VCTS SCT050CB BKN150
     FM290600 VRB04KT P6SM SKC=

USA.gov is the U.S. government's official web portal to all federal, state and local government web resources and services.